createdAt,value
2018-12-22T00:00:23.071Z,625.1
2018-12-22T00:01:25.244Z,625.5
2018-12-22T00:02:27.375Z,625.2
2018-12-22T00:03:29.561Z,625.8
2018-12-22T00:04:31.715Z,625.8
2018-12-22T00:05:33.603Z,625
2018-12-22T00:06:36.027Z,626.6
2018-12-22T00:07:38.456Z,626.8
2018-12-22T00:08:40.619Z,625
2018-12-22T00:09:43.049Z,625.8
2018-12-22T00:10:44.921Z,625.6
2018-12-22T00:11:47.345Z,626
2018-12-22T00:12:48.965Z,626.6
2018-12-22T00:13:51.104Z,625.9
2018-12-22T00:14:53.549Z,626
2018-12-22T00:15:55.691Z,626.1
2018-12-22T00:16:58.132Z,625.6
2018-12-22T00:18:00.568Z,626.3
2018-12-22T00:19:02.727Z,626.7
2018-12-22T00:20:04.901Z,624.8
2018-12-22T00:21:07.060Z,626.2
2018-12-22T00:22:09.505Z,624.1
2018-12-22T00:23:11.938Z,626.3
2018-12-22T00:24:14.108Z,625.4
2018-12-22T00:25:16.528Z,624.6
2018-12-22T00:26:18.976Z,625.2
2018-12-22T00:27:21.093Z,625.5
2018-12-22T00:28:24.027Z,625.1
2018-12-22T00:29:26.201Z,626.1
2018-12-22T00:30:28.762Z,625.5
2018-12-22T00:31:30.919Z,624.7
2018-12-22T00:32:33.340Z,625.1
2018-12-22T00:33:35.773Z,624.3
2018-12-22T00:34:37.645Z,624.2
2018-12-22T00:35:40.080Z,624.6
2018-12-22T00:36:41.975Z,624.3
2018-12-22T00:37:43.873Z,625.1
2018-12-22T00:38:46.303Z,624.6
2018-12-22T00:39:48.737Z,624.4
2018-12-22T00:40:51.204Z,623.6
2018-12-22T00:41:53.617Z,623.9
2018-12-22T00:42:55.530Z,624.4
2018-12-22T00:43:57.435Z,624.3
2018-12-22T00:44:59.849Z,623.9
2018-12-22T00:46:02.019Z,623.5
2018-12-22T00:47:04.179Z,623.7
2018-12-22T00:48:06.604Z,624.5
2018-12-22T00:49:08.323Z,623.6
2018-12-22T00:50:10.235Z,623.7
2018-12-22T00:51:12.115Z,623.5
2018-12-22T00:52:14.623Z,624.5
2018-12-22T00:53:16.799Z,623.6
2018-12-22T00:54:19.526Z,623.9
2018-12-22T00:55:22.062Z,623.3
2018-12-22T00:56:24.267Z,623.7
2018-12-22T00:57:26.722Z,623.3
2018-12-22T00:59:34.126Z,622.2
2018-12-22T01:00:36.560Z,622.5
2018-12-22T01:01:38.705Z,622.2
2018-12-22T01:02:41.129Z,623.2
2018-12-22T01:03:43.554Z,622.4
2018-12-22T01:04:45.704Z,622.7
2018-12-22T01:05:47.854Z,623
2018-12-22T01:06:50.006Z,622.5
2018-12-22T01:07:52.165Z,622.8
2018-12-22T01:08:54.586Z,623.1
2018-12-22T01:09:57.011Z,622.4
2018-12-22T01:10:59.444Z,621.6
2018-12-22T01:12:01.365Z,621.4
2018-12-22T01:13:03.530Z,621
2018-12-22T01:14:05.126Z,620.6
2018-12-22T01:15:07.565Z,620.9
2018-12-22T01:16:09.993Z,620.7
2018-12-22T01:17:12.430Z,620.5
2018-12-22T01:18:14.309Z,620.3
2018-12-22T01:19:16.748Z,620.1
2018-12-22T01:20:18.902Z,620.3
2018-12-22T01:21:21.335Z,620.4
2018-12-22T01:22:23.503Z,620.5
2018-12-22T01:23:25.645Z,621.2
2018-12-22T01:24:27.802Z,620.3
2018-12-22T01:25:30.288Z,620.5
2018-12-22T01:26:32.711Z,620.4
2018-12-22T01:27:35.139Z,620.5
2018-12-22T01:29:42.579Z,620.1
2018-12-22T01:30:45.003Z,619.6
2018-12-22T01:31:47.427Z,620.6
2018-12-22T01:32:49.585Z,620.5
2018-12-22T01:33:52.021Z,620.7
2018-12-22T01:34:53.889Z,620.6
2018-12-22T01:35:55.784Z,620
2018-12-22T01:36:58.236Z,620.7
2018-12-22T01:38:00.662Z,620.8
2018-12-22T01:39:03.102Z,620.7
2018-12-22T01:40:05.271Z,620.9
2018-12-22T01:41:07.427Z,620.7
2018-12-22T01:42:09.886Z,621.6
2018-12-22T01:43:12.038Z,621.4
2018-12-22T01:44:14.466Z,621
2018-12-22T01:45:16.655Z,621.4
2018-12-22T01:46:19.095Z,620.6
2018-12-22T01:47:21.273Z,620.7
2018-12-22T01:48:23.705Z,621
2018-12-22T01:50:30.865Z,620.3
2018-12-22T01:51:33.019Z,620.5
2018-12-22T01:52:35.454Z,620.4
2018-12-22T01:53:37.975Z,620.8
2018-12-22T01:54:40.411Z,620.9
2018-12-22T01:55:42.831Z,621.1
2018-12-22T01:56:45.267Z,621.2
2018-12-22T01:57:47.715Z,621.6
2018-12-22T01:58:50.154Z,622
2018-12-22T01:59:52.311Z,621.1
2018-12-22T02:00:54.730Z,622.1
2018-12-22T02:01:57.166Z,621.7
2018-12-22T02:02:59.316Z,622.2
2018-12-22T02:04:01.461Z,622
2018-12-22T02:05:03.358Z,621.5
2018-12-22T02:06:05.535Z,621.1
2018-12-22T02:07:07.976Z,621.5
2018-12-22T02:08:10.152Z,621.4
2018-12-22T02:09:12.301Z,621.5
2018-12-22T02:10:14.451Z,621.5
2018-12-22T02:11:16.049Z,621.9
2018-12-22T02:12:18.479Z,621.4
2018-12-22T02:13:20.925Z,621.6
2018-12-22T02:14:23.089Z,621.7
2018-12-22T02:15:25.518Z,622.3
2018-12-22T02:16:27.957Z,622.1
2018-12-22T02:17:30.385Z,621.9
2018-12-22T02:18:32.537Z,623
2018-12-22T02:19:34.685Z,623.4
2018-12-22T02:20:37.115Z,623.7
2018-12-22T02:21:39.295Z,623
2018-12-22T02:22:41.463Z,622.9
2018-12-22T02:23:43.905Z,622.7
2018-12-22T02:24:46.054Z,623.4
2018-12-22T02:25:48.480Z,623.5
2018-12-22T02:26:50.903Z,623.4
2018-12-22T02:27:53.335Z,623.5
2018-12-22T02:30:00.785Z,623.6
2018-12-22T02:31:03.206Z,624.2
2018-12-22T02:32:05.626Z,624.5
2018-12-22T02:33:07.512Z,624.7
2018-12-22T02:34:09.944Z,624.5
2018-12-22T02:35:12.382Z,623.9
2018-12-22T02:36:14.522Z,624.1
2018-12-22T02:37:16.954Z,624.7
2018-12-22T02:38:19.379Z,623.6
2018-12-22T02:39:21.793Z,624.6
2018-12-22T02:40:23.662Z,624.4
2018-12-22T02:41:25.858Z,624.1
2018-12-22T02:42:27.751Z,625.3
2018-12-22T02:43:29.910Z,624.7
2018-12-22T02:44:32.345Z,624.7
2018-12-22T02:45:34.498Z,625.1
2018-12-22T02:46:36.660Z,624.7
2018-12-22T02:47:39.109Z,624.8
2018-12-22T02:48:41.547Z,625
2018-12-22T02:49:43.158Z,625.2
2018-12-22T02:50:45.601Z,624.4
2018-12-22T02:51:47.751Z,624.1
2018-12-22T02:52:49.894Z,625
2018-12-22T02:53:52.323Z,625.4
2018-12-22T02:54:54.480Z,625
2018-12-22T02:55:56.903Z,624.7
2018-12-22T02:56:59.337Z,625.8
2018-12-22T02:58:01.489Z,625.1
2018-12-22T03:00:08.977Z,625.2
2018-12-22T03:01:11.124Z,625.6
2018-12-22T03:02:13.367Z,624.9
2018-12-22T03:03:15.951Z,625.4
2018-12-22T03:04:18.113Z,625.8
2018-12-22T03:05:19.986Z,624.3
2018-12-22T03:06:22.410Z,625.7
2018-12-22T03:07:24.838Z,625.1
2018-12-22T03:08:26.981Z,625
2018-12-22T03:09:29.068Z,625.9
2018-12-22T03:10:31.212Z,625.1
2018-12-22T03:11:33.638Z,626
2018-12-22T03:12:36.058Z,625.3
2018-12-22T03:13:38.322Z,626.4
2018-12-22T03:14:40.775Z,626.1
2018-12-22T03:15:42.906Z,626.2
2018-12-22T03:16:45.332Z,626.7
2018-12-22T03:17:47.772Z,626.2
2018-12-22T03:18:49.906Z,626.2
2018-12-22T03:19:52.326Z,626.7
2018-12-22T03:20:54.771Z,626.3
2018-12-22T03:21:57.304Z,627
2018-12-22T03:22:59.729Z,625.6
2018-12-22T03:24:01.881Z,625.9
2018-12-22T03:25:04.306Z,626.1
2018-12-22T03:26:06.742Z,626
2018-12-22T03:27:09.180Z,626.1
2018-12-22T03:28:11.603Z,625.8
2018-12-22T03:30:19.008Z,626.7
2018-12-22T03:31:21.442Z,626.8
2018-12-22T03:32:23.873Z,626.6
2018-12-22T03:33:26.038Z,625.8
2018-12-22T03:34:28.451Z,626.7
2018-12-22T03:35:30.589Z,626.2
2018-12-22T03:36:33.014Z,627.1
2018-12-22T03:37:35.428Z,626.1
2018-12-22T03:38:37.579Z,627.4
2018-12-22T03:39:40.006Z,626.9
2018-12-22T03:40:42.146Z,627.2
2018-12-22T03:41:44.309Z,627.9
2018-12-22T03:42:46.746Z,627.9
2018-12-22T03:43:49.179Z,627.9
2018-12-22T03:44:51.327Z,627
2018-12-22T03:45:53.480Z,627
2018-12-22T03:46:55.913Z,627.2
2018-12-22T03:47:58.067Z,627
2018-12-22T03:49:00.218Z,627.2
2018-12-22T03:50:02.385Z,627.7
2018-12-22T03:51:04.819Z,627.2
2018-12-22T03:52:07.352Z,626.9
2018-12-22T03:53:09.775Z,627.3
2018-12-22T03:54:12.203Z,627.4
2018-12-22T03:55:14.354Z,627
2018-12-22T03:56:16.511Z,626.5
2018-12-22T03:57:18.925Z,626.7
2018-12-22T03:58:21.116Z,627.2
2018-12-22T04:00:28.526Z,628
2018-12-22T04:01:30.966Z,628.3
2018-12-22T04:02:33.134Z,628.6
2018-12-22T04:03:35.305Z,628.7
2018-12-22T04:04:37.747Z,627.8
2018-12-22T04:05:40.175Z,627.9
2018-12-22T04:06:42.603Z,628.5
2018-12-22T04:07:44.777Z,628.2
2018-12-22T04:08:47.193Z,628.1
2018-12-22T04:09:49.613Z,628.1
2018-12-22T04:10:52.054Z,629.2
2018-12-22T04:11:54.193Z,629.5
2018-12-22T04:12:56.367Z,628.4
2018-12-22T04:13:58.514Z,628.2
2018-12-22T04:15:00.376Z,629.7
2018-12-22T04:16:02.802Z,629.3
2018-12-22T04:17:04.937Z,629.3
2018-12-22T04:18:07.366Z,628.7
2018-12-22T04:19:09.536Z,629
2018-12-22T04:20:11.961Z,629
2018-12-22T04:21:13.857Z,629.7
2018-12-22T04:22:16.286Z,630.1
2018-12-22T04:23:18.705Z,628
2018-12-22T04:24:21.135Z,628.4
2018-12-22T04:25:23.564Z,629.2
2018-12-22T04:26:26.003Z,630.5
2018-12-22T04:27:28.443Z,629.8
2018-12-22T04:28:30.867Z,630
2018-12-22T04:30:37.710Z,628.8
2018-12-22T04:31:39.893Z,628.9
2018-12-22T04:32:42.037Z,628.3
2018-12-22T04:33:44.462Z,628.4
2018-12-22T04:34:46.885Z,629.7
2018-12-22T04:35:49.034Z,628.4
2018-12-22T04:36:51.185Z,628.4
2018-12-22T04:37:53.114Z,628.5
2018-12-22T04:38:55.574Z,629.8
2018-12-22T04:39:57.733Z,628.8
2018-12-22T04:41:00.263Z,628.6
2018-12-22T04:42:02.690Z,627
2018-12-22T04:43:05.109Z,628.2
2018-12-22T04:44:07.531Z,628.1
2018-12-22T04:45:09.949Z,627.2
2018-12-22T04:46:12.385Z,627.9
2018-12-22T04:47:14.545Z,628.5
2018-12-22T04:48:16.417Z,627.7
2018-12-22T04:49:18.845Z,626.8
2018-12-22T04:50:21.289Z,627.1
2018-12-22T04:51:23.724Z,627.4
2018-12-22T04:52:25.879Z,629.3
2018-12-22T04:53:28.300Z,628.2
2018-12-22T04:54:30.445Z,628.6
2018-12-22T04:55:32.607Z,628.4
2018-12-22T04:56:34.753Z,627.9
2018-12-22T04:57:37.213Z,627.8
2018-12-22T04:58:39.647Z,630.3
2018-12-22T05:00:47.057Z,630
2018-12-22T05:01:49.471Z,628.4
2018-12-22T05:02:51.907Z,628.6
2018-12-22T05:03:54.330Z,626.6
2018-12-22T05:04:56.476Z,627.3
2018-12-22T05:05:58.672Z,627.5
2018-12-22T05:07:01.108Z,626.9
2018-12-22T05:08:03.538Z,627.1
2018-12-22T05:09:05.689Z,626.8
2018-12-22T05:10:08.119Z,627
2018-12-22T05:11:10.033Z,627.6
2018-12-22T05:12:12.475Z,626.6
2018-12-22T05:13:14.897Z,626.1
2018-12-22T05:14:17.423Z,626.1
2018-12-22T05:15:34.519Z,626.4
2018-12-22T05:16:36.967Z,625.1
2018-12-22T05:17:39.110Z,626.5
2018-12-22T05:18:40.703Z,626.1
2018-12-22T05:19:42.857Z,625.6
2018-12-22T05:20:44.730Z,626.5
2018-12-22T05:21:47.164Z,625.4
2018-12-22T05:22:49.613Z,625.1
2018-12-22T05:23:51.765Z,623.3
2018-12-22T05:24:53.915Z,625.3
2018-12-22T05:25:56.071Z,625.7
2018-12-22T05:26:58.503Z,625.9
2018-12-22T05:28:00.926Z,625.1
2018-12-22T05:29:03.350Z,624.7
2018-12-22T05:30:05.495Z,624.3
2018-12-22T05:31:07.648Z,625.2
2018-12-22T05:32:09.825Z,624.9
2018-12-22T05:33:12.263Z,624.4
2018-12-22T05:34:14.408Z,625.1
2018-12-22T05:35:16.953Z,624.9
2018-12-22T05:36:19.387Z,625.9
2018-12-22T05:37:21.298Z,626.5
2018-12-22T05:38:23.447Z,625.1
2018-12-22T05:39:25.614Z,625.3
2018-12-22T05:40:28.035Z,625
2018-12-22T05:41:30.463Z,624.8
2018-12-22T05:42:32.616Z,624.3
2018-12-22T05:43:34.794Z,623.8
2018-12-22T05:44:36.980Z,623.9
2018-12-22T05:45:39.402Z,624.5
2018-12-22T05:46:41.580Z,623.3
2018-12-22T05:47:43.481Z,623.3
2018-12-22T05:48:45.915Z,622
2018-12-22T05:49:48.340Z,622.4
2018-12-22T05:50:50.502Z,622.9
2018-12-22T05:51:52.400Z,621.1
2018-12-22T05:52:54.855Z,622.6
2018-12-22T05:53:57.023Z,621.4
2018-12-22T05:54:58.920Z,622.3
2018-12-22T05:56:01.353Z,623
2018-12-22T05:57:03.813Z,622.1
2018-12-22T05:58:06.241Z,623.3
2018-12-22T05:59:08.395Z,622.5
2018-12-22T06:00:10.561Z,623.4
2018-12-22T06:01:13.003Z,622.8
2018-12-22T06:02:14.892Z,622.7
2018-12-22T06:03:17.052Z,623.2
2018-12-22T06:04:19.210Z,623
2018-12-22T06:05:21.646Z,623
2018-12-22T06:06:24.163Z,623.5
2018-12-22T06:07:26.049Z,622.9
2018-12-22T06:08:28.184Z,622.7
2018-12-22T06:09:30.073Z,623.5
2018-12-22T06:10:32.505Z,623.6
2018-12-22T06:11:34.085Z,622.9
2018-12-22T06:12:36.540Z,623.7
2018-12-22T06:13:38.709Z,623.5
2018-12-22T06:14:40.579Z,622.9
2018-12-22T06:15:42.776Z,623.1
2018-12-22T06:16:45.199Z,622.5
2018-12-22T06:17:47.333Z,622.7
2018-12-22T06:18:49.767Z,622.2
2018-12-22T06:19:51.936Z,622.1
2018-12-22T06:20:54.415Z,622.1
2018-12-22T06:21:56.581Z,621.8
2018-12-22T06:22:59.000Z,622.2
2018-12-22T06:24:01.201Z,621.3
2018-12-22T06:25:03.346Z,621.2
2018-12-22T06:26:05.215Z,621.5
2018-12-22T06:27:07.662Z,621.6
2018-12-22T06:28:10.076Z,622.3
2018-12-22T06:29:12.508Z,621.4
2018-12-22T06:30:14.683Z,622.2
2018-12-22T06:31:16.845Z,621.3
2018-12-22T06:32:19.279Z,621.9
2018-12-22T06:33:21.706Z,621.7
2018-12-22T06:34:23.861Z,623.4
2018-12-22T06:35:26.065Z,621.8
2018-12-22T06:36:28.515Z,622.1
2018-12-22T06:37:30.959Z,621.9
2018-12-22T06:38:33.405Z,620.2
2018-12-22T06:39:35.844Z,621.3
2018-12-22T06:40:37.965Z,621.2
2018-12-22T06:41:39.853Z,621.6
2018-12-22T06:42:41.778Z,621.1
2018-12-22T06:43:43.943Z,621.8
2018-12-22T06:44:46.143Z,622.4
2018-12-22T06:45:48.271Z,621.9
2018-12-22T06:46:50.707Z,620.6
2018-12-22T06:47:55.166Z,621.6
2018-12-22T06:48:57.025Z,620.3
2018-12-22T06:49:58.626Z,620.7
2018-12-22T06:51:00.785Z,621.7
2018-12-22T06:52:02.943Z,620.6
2018-12-22T06:53:05.089Z,620.3
2018-12-22T06:54:07.523Z,620.9
2018-12-22T06:55:09.675Z,619.9
2018-12-22T06:56:12.105Z,621.4
2018-12-22T06:57:14.529Z,620
2018-12-22T06:58:16.953Z,620.6
2018-12-22T06:59:19.116Z,620.6
2018-12-22T07:00:21.541Z,620.5
2018-12-22T07:01:23.430Z,620.8
2018-12-22T07:02:25.978Z,622.4
2018-12-22T07:03:28.136Z,622
2018-12-22T07:04:30.576Z,622.3
2018-12-22T07:05:32.711Z,621.5
2018-12-22T07:06:34.882Z,621.2
2018-12-22T07:07:37.311Z,621.4
2018-12-22T07:08:39.472Z,620.3
2018-12-22T07:09:41.370Z,622.4
2018-12-22T07:10:43.525Z,621.5
2018-12-22T07:11:45.681Z,620.8
2018-12-22T07:12:48.113Z,622.1
2018-12-22T07:13:50.561Z,621.8
2018-12-22T07:14:52.449Z,621.3
2018-12-22T07:15:54.893Z,622
2018-12-22T07:16:56.785Z,621.2
2018-12-22T07:17:58.663Z,621.5
2018-12-22T07:19:00.544Z,621.9
2018-12-22T07:20:02.982Z,621.4
2018-12-22T07:21:05.155Z,621.5
2018-12-22T07:22:07.041Z,621.5
2018-12-22T07:23:09.229Z,620.3
2018-12-22T07:24:11.648Z,622
2018-12-22T07:25:14.091Z,620.5
2018-12-22T07:26:16.523Z,619.4
2018-12-22T07:27:18.693Z,620.1
2018-12-22T07:28:20.861Z,620.7
2018-12-22T07:29:23.399Z,620.2
2018-12-22T07:31:30.811Z,620
2018-12-22T07:32:33.239Z,620.6
2018-12-22T07:33:35.383Z,621.1
2018-12-22T07:34:37.632Z,620.3
2018-12-22T07:35:39.773Z,620.6
2018-12-22T07:36:41.944Z,620.4
2018-12-22T07:37:44.099Z,621.2
2018-12-22T07:38:45.945Z,620.6
2018-12-22T07:39:48.367Z,621.1
2018-12-22T07:40:50.217Z,621.4
2018-12-22T07:41:52.649Z,620.7
2018-12-22T07:42:54.819Z,620.4
2018-12-22T07:43:56.969Z,620.7
2018-12-22T07:44:58.865Z,620.8
2018-12-22T07:46:01.019Z,620.5
2018-12-22T07:47:03.473Z,618.9
2018-12-22T07:48:05.653Z,619.6
2018-12-22T07:49:08.093Z,619.9
2018-12-22T07:50:10.528Z,619.5
2018-12-22T07:51:12.949Z,619.4
2018-12-22T07:52:15.069Z,619.5
2018-12-22T07:53:17.509Z,618.3
2018-12-22T07:54:19.942Z,618.1
2018-12-22T07:55:22.100Z,617.9
2018-12-22T07:56:24.525Z,617.4
2018-12-22T07:57:26.956Z,618.1
2018-12-22T07:58:29.103Z,618
2018-12-22T07:59:31.249Z,617.1
2018-12-22T08:01:38.368Z,616.3
2018-12-22T08:02:40.229Z,615.6
2018-12-22T08:03:42.090Z,616.3
2018-12-22T08:04:44.259Z,615.3
2018-12-22T08:05:46.414Z,615
2018-12-22T08:06:48.383Z,615.4
2018-12-22T08:07:50.554Z,614.9
2018-12-22T08:08:52.994Z,614.4
2018-12-22T08:09:55.447Z,613.6
2018-12-22T08:10:57.595Z,613
2018-12-22T08:11:59.470Z,613.7
2018-12-22T08:13:01.892Z,613.6
2018-12-22T08:14:04.334Z,612.9
2018-12-22T08:15:06.781Z,612.5
2018-12-22T08:16:08.925Z,612.7
2018-12-22T08:17:11.360Z,612.4
2018-12-22T08:18:13.814Z,612.1
2018-12-22T08:19:16.241Z,611.9
2018-12-22T08:20:18.427Z,612.6
2018-12-22T08:21:20.855Z,611.3
2018-12-22T08:22:23.391Z,611
2018-12-22T08:23:25.824Z,611.1
2018-12-22T08:24:28.263Z,611.9
2018-12-22T08:25:30.691Z,610.7
2018-12-22T08:26:33.137Z,610.9
2018-12-22T08:27:35.576Z,610.4
2018-12-22T08:28:37.745Z,610.5
2018-12-22T08:29:39.905Z,610.1
2018-12-22T08:31:47.314Z,609.8
2018-12-22T08:32:49.445Z,610.5
2018-12-22T08:33:51.875Z,610.6
2018-12-22T08:34:54.314Z,610.9
2018-12-22T08:35:56.194Z,611
2018-12-22T08:36:58.354Z,611.4
2018-12-22T08:38:00.608Z,611
2018-12-22T08:39:02.739Z,613.1
2018-12-22T08:40:04.890Z,611
2018-12-22T08:41:07.034Z,611.9
2018-12-22T08:42:09.190Z,610.7
2018-12-22T08:43:11.609Z,610.2
2018-12-22T08:44:13.782Z,611.5
2018-12-22T08:45:16.203Z,610.3
2018-12-22T08:46:18.646Z,610.9
2018-12-22T08:47:20.265Z,610
2018-12-22T08:48:22.693Z,609.9
2018-12-22T08:49:24.850Z,609.8
2018-12-22T08:50:27.005Z,610
2018-12-22T08:51:29.144Z,608.3
2018-12-22T08:52:31.599Z,609.8
2018-12-22T08:53:34.124Z,609.7
2018-12-22T08:54:36.598Z,609.4
2018-12-22T08:55:39.013Z,609.3
2018-12-22T08:56:41.178Z,609.4
2018-12-22T08:57:43.636Z,608.1
2018-12-22T08:58:46.074Z,609.5
2018-12-22T08:59:48.499Z,609
2018-12-22T09:01:55.665Z,608.9
2018-12-22T09:02:58.097Z,607.4
2018-12-22T09:03:59.968Z,606.8
2018-12-22T09:05:02.151Z,607
2018-12-22T09:06:04.588Z,607.1
2018-12-22T09:07:06.454Z,606.1
2018-12-22T09:08:08.865Z,605.4
2018-12-22T09:09:11.294Z,605.8
2018-12-22T09:10:13.750Z,604.6
2018-12-22T09:11:16.192Z,605.4
2018-12-22T09:12:18.634Z,605.8
2018-12-22T09:13:22.927Z,605.5
2018-12-22T09:14:25.362Z,605.3
2018-12-22T09:15:27.535Z,604.5
2018-12-22T09:16:29.963Z,604.6
2018-12-22T09:17:32.141Z,605
2018-12-22T09:18:34.383Z,604.5
2018-12-22T09:19:36.809Z,605.4
2018-12-22T09:20:38.985Z,604.5
2018-12-22T09:21:41.171Z,604.3
2018-12-22T09:22:43.594Z,604.7
2018-12-22T09:23:46.172Z,604.5
2018-12-22T09:24:48.604Z,604
2018-12-22T09:25:50.787Z,604.7
2018-12-22T09:26:52.937Z,603.9
2018-12-22T09:27:55.389Z,603.7
2018-12-22T09:28:57.263Z,602.6
2018-12-22T09:29:59.417Z,602.6
2018-12-22T09:31:02.903Z,603
2018-12-22T09:32:05.326Z,602.1
2018-12-22T09:33:07.777Z,603.3
2018-12-22T09:35:14.912Z,602.4
2018-12-22T09:36:17.446Z,602.6
2018-12-22T09:37:19.599Z,603.3
2018-12-22T09:38:21.785Z,602.6
2018-12-22T09:39:24.301Z,602.8
2018-12-22T09:40:26.442Z,602.4
2018-12-22T09:41:28.609Z,602.5
2018-12-22T09:42:31.040Z,602.2
2018-12-22T09:43:33.203Z,602.8
2018-12-22T09:44:35.636Z,601.4
2018-12-22T09:45:37.769Z,602.3
2018-12-22T09:46:40.211Z,602.4
2018-12-22T09:47:41.832Z,601.9
2018-12-22T09:48:43.707Z,601.2
2018-12-22T09:49:45.859Z,601.4
2018-12-22T09:50:48.315Z,600.8
2018-12-22T09:51:50.832Z,601.1
2018-12-22T09:52:53.011Z,600.3
2018-12-22T09:53:55.185Z,600.5
2018-12-22T09:54:57.645Z,599.9
2018-12-22T09:56:00.092Z,599.7
2018-12-22T09:57:02.614Z,600.1
2018-12-22T09:58:05.029Z,599.6
2018-12-22T09:59:08.517Z,600.2
2018-12-22T10:00:10.688Z,598.3
2018-12-22T10:01:13.131Z,599.1
2018-12-22T10:02:15.574Z,600.7
2018-12-22T10:03:17.759Z,600.3
2018-12-22T10:04:20.191Z,601
2018-12-22T10:05:22.631Z,600
2018-12-22T10:06:24.779Z,600.2
2018-12-22T10:07:27.221Z,600.5
2018-12-22T10:08:29.113Z,600.4
2018-12-22T10:09:31.283Z,599.4
2018-12-22T10:10:33.705Z,600.2
2018-12-22T10:11:36.155Z,600.5
2018-12-22T10:12:38.312Z,600.5
2018-12-22T10:13:40.487Z,599.8
2018-12-22T10:14:42.939Z,600.2
2018-12-22T10:15:45.369Z,599.9
2018-12-22T10:16:47.281Z,600.7
2018-12-22T10:17:49.713Z,599.7
2018-12-22T10:18:51.321Z,599.7
2018-12-22T10:19:53.478Z,600.1
2018-12-22T10:20:55.662Z,599.6
2018-12-22T10:21:58.101Z,601
2018-12-22T10:23:00.532Z,599.7
2018-12-22T10:24:02.953Z,599
2018-12-22T10:25:04.826Z,600.7
2018-12-22T10:26:07.291Z,598.2
2018-12-22T10:27:09.455Z,599.2
2018-12-22T10:28:11.605Z,600.7
2018-12-22T10:29:14.071Z,598.1
2018-12-22T10:30:16.529Z,600
2018-12-22T10:31:19.957Z,600.1
2018-12-22T10:32:22.385Z,598.5
2018-12-22T10:33:24.264Z,599.2
2018-12-22T10:34:26.426Z,599.2
2018-12-22T10:35:28.578Z,599.2
2018-12-22T10:36:31.001Z,599.3
2018-12-22T10:37:33.441Z,598.7
2018-12-22T10:38:35.616Z,599.5
2018-12-22T10:39:38.064Z,599.9
2018-12-22T10:40:40.588Z,598.6
2018-12-22T10:41:42.492Z,599.6
2018-12-22T10:42:44.935Z,598.9
2018-12-22T10:43:47.110Z,599.1
2018-12-22T10:44:49.549Z,599.8
2018-12-22T10:45:51.999Z,599.6
2018-12-22T10:46:54.445Z,600.5
2018-12-22T10:47:56.893Z,600.8
2018-12-22T10:48:59.058Z,600
2018-12-22T10:50:01.703Z,600.5
2018-12-22T10:51:03.921Z,599.7
2018-12-22T10:52:06.087Z,599.6
2018-12-22T10:53:08.550Z,599.9
2018-12-22T10:54:10.713Z,600.5
2018-12-22T10:55:13.196Z,600.3
2018-12-22T10:56:15.108Z,599.6
2018-12-22T10:57:17.562Z,599.6
2018-12-22T10:58:20.002Z,599
2018-12-22T10:59:22.439Z,599.1
2018-12-22T11:00:24.883Z,598.5
2018-12-22T11:01:28.779Z,598.7
2018-12-22T11:02:31.220Z,598.7
2018-12-22T11:03:34.114Z,598.3
2018-12-22T11:04:36.552Z,599.3
2018-12-22T11:05:38.985Z,599
2018-12-22T11:06:41.123Z,598.8
2018-12-22T11:07:43.030Z,599
2018-12-22T11:08:45.463Z,599.4
2018-12-22T11:09:47.924Z,599.4
2018-12-22T11:10:50.091Z,599.7
2018-12-22T11:11:51.966Z,598.8
2018-12-22T11:12:53.870Z,599.1
2018-12-22T11:13:56.302Z,599.7
2018-12-22T11:14:58.751Z,599.1
2018-12-22T11:16:00.904Z,599
2018-12-22T11:17:03.341Z,598.3
2018-12-22T11:18:05.779Z,599.6
2018-12-22T11:19:07.649Z,599.4
2018-12-22T11:20:10.082Z,598.9
2018-12-22T11:21:12.507Z,600
2018-12-22T11:22:14.651Z,599.4
2018-12-22T11:24:21.806Z,599.6
2018-12-22T11:25:23.975Z,599
2018-12-22T11:26:26.410Z,599.3
2018-12-22T11:27:28.833Z,599.2
2018-12-22T11:28:31.260Z,599.2
2018-12-22T11:29:33.697Z,599.5
2018-12-22T11:30:35.873Z,599.1
2018-12-22T11:31:38.315Z,599.3
2018-12-22T11:32:40.769Z,599.1
2018-12-22T11:33:42.933Z,600
2018-12-22T11:34:44.821Z,599.6
2018-12-22T11:35:47.271Z,599.2
2018-12-22T11:36:49.448Z,598.8
2018-12-22T11:37:51.895Z,599
2018-12-22T11:38:54.330Z,598.7
2018-12-22T11:39:56.863Z,599.2
2018-12-22T11:40:59.082Z,598.5
2018-12-22T11:42:01.237Z,598.2
2018-12-22T11:43:03.133Z,597.8
2018-12-22T11:44:05.374Z,599.2
2018-12-22T11:45:07.839Z,598.4
2018-12-22T11:46:10.026Z,596.2
2018-12-22T11:47:12.453Z,597.1
2018-12-22T11:48:14.638Z,597.7
2018-12-22T11:49:17.135Z,597.1
2018-12-22T11:50:19.565Z,597.2
2018-12-22T11:51:22.004Z,597.1
2018-12-22T11:52:23.984Z,597.6
2018-12-22T11:53:26.464Z,597.2
2018-12-22T11:54:28.611Z,596.9
2018-12-22T11:55:31.160Z,597
2018-12-22T11:56:33.585Z,596.6
2018-12-22T11:57:36.021Z,596.8
2018-12-22T11:58:40.335Z,596.9
2018-12-22T11:59:42.759Z,595.4
2018-12-22T12:00:45.176Z,595.1
2018-12-22T12:01:47.325Z,594.8
2018-12-22T12:02:49.772Z,594.4
2018-12-22T12:03:51.939Z,594.2
2018-12-22T12:04:54.124Z,593.3
2018-12-22T12:05:56.124Z,594.4
2018-12-22T12:06:58.571Z,594.8
2018-12-22T12:08:01.013Z,595.5
2018-12-22T12:09:02.908Z,594.7
2018-12-22T12:10:05.075Z,594.5
2018-12-22T12:11:07.504Z,593.8
2018-12-22T12:12:09.446Z,594.2
2018-12-22T12:13:11.882Z,594.4
2018-12-22T12:15:08.335Z,593.5
2018-12-22T12:16:10.570Z,592.9
2018-12-22T12:17:12.466Z,592.4
2018-12-22T12:18:14.350Z,593.4
2018-12-22T12:19:16.790Z,592.2
2018-12-22T12:20:18.953Z,592.3
2018-12-22T12:21:21.513Z,592.1
2018-12-22T12:22:23.404Z,591.6
2018-12-22T12:23:25.864Z,591.6
2018-12-22T12:24:28.023Z,590.8
2018-12-22T12:25:30.468Z,591.5
2018-12-22T12:26:32.378Z,591.2
2018-12-22T12:27:34.805Z,590.9
2018-12-22T12:28:37.324Z,591.3
2018-12-22T12:29:39.221Z,591.2
2018-12-22T12:30:41.380Z,591.4
2018-12-22T12:31:51.873Z,591.5
2018-12-22T12:32:50.214Z,591.2
2018-12-22T12:33:52.088Z,591.4
2018-12-22T12:34:54.510Z,591
2018-12-22T12:35:56.960Z,590.7
2018-12-22T12:36:59.410Z,591.3
2018-12-22T12:38:01.570Z,590.8
2018-12-22T12:39:03.719Z,590.9
2018-12-22T12:40:05.877Z,590.7
2018-12-22T12:41:08.314Z,590.5
2018-12-22T12:42:10.759Z,590.5
2018-12-22T12:43:12.653Z,589.7
2018-12-22T12:44:14.526Z,590.2
2018-12-22T12:45:31.602Z,590.4
2018-12-22T12:47:39.024Z,590.6
2018-12-22T12:48:41.479Z,590.9
2018-12-22T12:49:43.902Z,590.7
2018-12-22T12:50:48.382Z,591.2
2018-12-22T12:51:50.546Z,590.1
2018-12-22T12:52:52.680Z,590.6
2018-12-22T12:53:54.902Z,590.7
2018-12-22T12:54:57.333Z,590.7
2018-12-22T12:55:59.526Z,590.9
2018-12-22T12:57:01.965Z,590.6
2018-12-22T12:58:04.132Z,591.2
2018-12-22T12:59:06.575Z,590.8
2018-12-22T13:00:09.030Z,590.4
2018-12-22T13:01:11.468Z,590.5
2018-12-22T13:02:13.900Z,590.5
2018-12-22T13:03:16.321Z,590.6
2018-12-22T13:04:18.463Z,590
2018-12-22T13:05:20.343Z,590.5
2018-12-22T13:06:22.786Z,590
2018-12-22T13:07:25.286Z,590.2
2018-12-22T13:08:27.718Z,590.4
2018-12-22T13:09:30.143Z,590
2018-12-22T13:10:32.574Z,590.3
2018-12-22T13:11:35.003Z,589.7
2018-12-22T13:12:37.463Z,589.9
2018-12-22T13:13:40.015Z,589.9
2018-12-22T13:14:42.175Z,590.1
2018-12-22T13:15:44.636Z,590.8
2018-12-22T13:16:47.070Z,590.5
2018-12-22T13:17:49.505Z,590.3
2018-12-22T13:18:51.937Z,590.6
2018-12-22T13:19:54.606Z,590.5
2018-12-22T13:20:56.751Z,591
2018-12-22T13:21:58.977Z,590.2
2018-12-22T13:23:01.435Z,589.6
2018-12-22T13:24:03.856Z,589.8
2018-12-22T13:25:05.739Z,589.9
2018-12-22T13:26:08.188Z,589.5
2018-12-22T13:27:10.621Z,589.8
2018-12-22T13:28:12.773Z,589.7
2018-12-22T13:29:14.931Z,589.2
2018-12-22T13:30:17.363Z,589.3
2018-12-22T13:31:19.789Z,589.2
2018-12-22T13:32:22.220Z,589
2018-12-22T13:33:25.413Z,588.5
2018-12-22T13:34:27.916Z,588
2018-12-22T13:35:30.363Z,588.4
2018-12-22T13:37:37.770Z,588
2018-12-22T13:38:40.203Z,586.8
2018-12-22T13:39:42.118Z,588
2018-12-22T13:40:44.273Z,587
2018-12-22T13:41:46.714Z,586.9
2018-12-22T13:42:48.591Z,587
2018-12-22T13:43:50.814Z,587.1
2018-12-22T13:44:53.233Z,586.9
2018-12-22T13:45:55.399Z,586.5
2018-12-22T13:46:57.841Z,585.8